Time;durP1;ratioP1;P1;durP2;ratioP2;P2;SDS_P1;SDS_P2;PMS_P1;PMS_P2;Temp;Humidity;BMP_temperature;BMP_pressure;BME280_temperature;BME280_humidity;BME280_pressure;Samples;Min_cycle;Max_cycle;Signal;HPM_P1;HPM_P2
2022/05/08 00:00:52;;;;;;;8.20;6.10;;;;;;;10.44;73.92;100992.63;88268;1273;80875;-66
2022/05/08 00:03:01;;;;;;;10.70;6.50;;;;;;;10.43;74.01;100992.79;88272;1273;82482;-67
2022/05/08 00:05:12;;;;;;;8.30;6.10;;;;;;;10.40;74.08;100997.30;87858;1273;99111;-67
2022/05/08 00:07:21;;;;;;;10.60;7.00;;;;;;;10.39;74.11;100993.27;88293;1273;88877;-67
2022/05/08 00:09:30;;;;;;;8.90;6.70;;;;;;;10.42;74.18;101000.66;88282;1274;95722;-67
2022/05/08 00:11:42;;;;;;;11.20;7.70;;;;;;;10.47;74.11;101006.18;88262;1274;79597;-68
2022/05/08 00:13:50;;;;;;;13.90;9.50;;;;;;;10.49;74.17;101012.50;88297;1273;82499;-67
2022/05/08 00:16:02;;;;;;;14.00;10.40;;;;;;;10.51;74.18;101013.84;88264;1271;98516;-68
2022/05/08 00:18:11;;;;;;;17.10;11.70;;;;;;;10.56;74.05;101027.66;88240;1273;88019;-57
2022/05/08 00:20:20;;;;;;;20.00;14.40;;;;;;;10.60;73.97;101024.68;88263;1273;95948;-58
2022/05/08 00:22:29;;;;;;;20.80;16.00;;;;;;;10.66;73.95;101022.39;88284;1273;80437;-67
2022/05/08 00:24:38;;;;;;;19.10;13.90;;;;;;;10.70;73.89;101015.62;88258;1273;82172;-68
2022/05/08 00:26:46;;;;;;;19.40;14.00;;;;;;;10.69;73.94;101014.61;88195;1273;98395;-68
2022/05/08 00:28:59;;;;;;;18.40;12.80;;;;;;;10.70;73.86;101017.21;88185;1273;87182;-58
2022/05/08 00:31:11;;;;;;;19.90;14.50;;;;;;;10.73;73.86;101017.44;88174;1274;94381;-58
2022/05/08 00:33:22;;;;;;;16.10;12.90;;;;;;;10.75;73.79;101016.54;88291;1273;77764;-58
2022/05/08 00:35:35;;;;;;;16.00;13.00;;;;;;;10.74;73.74;101016.66;88211;1273;82586;-58
2022/05/08 00:37:44;;;;;;;14.80;12.10;;;;;;;10.75;73.77;101011.79;88255;1273;96500;-58
2022/05/08 00:39:56;;;;;;;14.20;10.60;;;;;;;10.76;73.89;101008.27;88270;1273;88242;-57
2022/05/08 00:42:05;;;;;;;13.30;10.90;;;;;;;10.76;73.93;101006.62;88187;1273;95204;-58
2022/05/08 00:44:14;;;;;;;13.20;10.10;;;;;;;10.78;74.01;101007.72;88246;1273;79345;-57
2022/05/08 00:46:23;;;;;;;13.30;10.00;;;;;;;10.79;73.94;101006.50;88274;1273;82687;-58
2022/05/08 00:48:32;;;;;;;12.90;9.20;;;;;;;10.81;74.05;101001.59;88269;1271;97604;-68
2022/05/08 00:50:41;;;;;;;13.20;9.80;;;;;;;10.79;74.37;101000.39;88290;1273;88935;-67
2022/05/08 00:52:53;;;;;;;11.30;9.30;;;;;;;10.81;74.35;100998.34;88251;1273;95263;-58
2022/05/08 00:55:02;;;;;;;11.80;9.10;;;;;;;10.85;74.52;100995.86;88265;1273;80150;-58
2022/05/08 00:57:14;;;;;;;13.30;9.90;;;;;;;10.93;74.49;100992.20;88270;1274;81030;-58
2022/05/08 00:59:23;;;;;;;13.10;9.50;;;;;;;10.98;74.44;100993.83;88286;1273;99213;-68
2022/05/08 01:01:32;;;;;;;11.10;9.10;;;;;;;11.03;74.56;100994.75;88186;1273;88726;-68
2022/05/08 01:03:42;;;;;;;12.90;9.60;;;;;;;11.05;74.47;100990.98;88260;1273;94043;-59
2022/05/08 01:05:53;;;;;;;14.10;10.30;;;;;;;11.11;74.40;100986.49;88265;1273;78136;-58
2022/05/08 01:08:02;;;;;;;11.60;9.50;;;;;;;11.14;74.48;100985.94;88294;1273;79444;-70
2022/05/08 01:10:13;;;;;;;12.00;10.40;;;;;;;11.16;74.54;100986.50;88269;1273;99653;-68
2022/05/08 01:12:25;;;;;;;14.40;10.40;;;;;;;11.17;74.60;100984.11;88305;1274;89224;-58
2022/05/08 01:14:38;;;;;;;12.30;10.50;;;;;;;11.18;74.55;100987.96;88253;1273;93676;-57
2022/05/08 01:16:47;;;;;;;15.70;11.10;;;;;;;11.22;74.42;100983.79;88196;1273;79830;-59
2022/05/08 01:18:56;;;;;;;11.10;9.50;;;;;;;11.27;74.38;100983.55;88323;1274;84047;-58
2022/05/08 01:21:08;;;;;;;13.60;10.90;;;;;;;11.29;74.42;100978.13;88252;1274;100405;-57
2022/05/08 01:23:21;;;;;;;13.40;9.90;;;;;;;11.30;74.37;100971.79;88257;1273;89011;-58
2022/05/08 01:25:33;;;;;;;16.20;10.40;;;;;;;11.31;74.54;100970.44;88283;1273;95720;-60
2022/05/08 01:27:45;;;;;;;14.80;9.10;;;;;;;11.34;74.64;100967.20;88261;1273;80770;-67
2022/05/08 01:29:54;;;;;;;11.40;8.80;;;;;;;11.35;74.72;100963.17;88276;1273;82792;-67
2022/05/08 01:32:08;;;;;;;13.60;8.60;;;;;;;11.38;74.91;100961.98;88271;1273;99364;-68
2022/05/08 01:34:16;;;;;;;10.90;8.50;;;;;;;11.45;74.84;100969.81;88293;1273;87041;-67
2022/05/08 01:36:25;;;;;;;12.60;9.20;;;;;;;11.51;74.66;100971.60;88249;1273;94821;-67
2022/05/08 01:38:37;;;;;;;13.20;8.90;;;;;;;11.59;74.60;100972.38;88265;1273;78003;-68
2022/05/08 01:40:46;;;;;;;13.20;10.20;;;;;;;11.63;74.50;100970.25;88148;1276;82659;-67
2022/05/08 01:42:59;;;;;;;11.70;9.50;;;;;;;11.61;74.51;100974.56;88305;1273;100116;-57
2022/05/08 01:45:09;;;;;;;11.70;9.60;;;;;;;11.61;74.63;100976.45;88223;1273;88284;-58
2022/05/08 01:49:49;;;;;;;13.40;8.30;;;;;;;11.50;74.81;100976.78;88250;1273;80273;-67
2022/05/08 01:51:57;;;;;;;14.50;9.80;;;;;;;11.46;74.90;100976.10;88266;1273;83296;-68
2022/05/08 01:54:07;;;;;;;12.00;8.70;;;;;;;11.43;75.08;100979.35;88268;1273;98343;-58
2022/05/08 01:56:16;;;;;;;11.30;8.50;;;;;;;11.44;75.15;100977.71;88264;1273;87199;-57
2022/05/08 01:58:26;;;;;;;12.70;9.10;;;;;;;11.42;75.23;100978.91;88193;1273;95197;-58
2022/05/08 02:00:38;;;;;;;12.60;9.10;;;;;;;11.42;75.26;100973.88;88272;1273;79858;-58
2022/05/08 02:02:49;;;;;;;10.60;9.10;;;;;;;11.42;75.35;100974.91;88298;1273;80527;-67
2022/05/08 02:04:58;;;;;;;12.70;9.50;;;;;;;11.44;75.48;100977.73;88253;1273;99138;-69
2022/05/08 02:07:08;;;;;;;10.80;8.50;;;;;;;11.49;75.48;100976.38;88293;1273;88549;-69
2022/05/08 02:09:18;;;;;;;12.80;9.30;;;;;;;11.56;75.57;100977.31;88267;1273;95528;-67
2022/05/08 02:11:27;;;;;;;13.00;9.70;;;;;;;11.57;75.56;100980.35;88276;1273;81315;-68
2022/05/08 02:13:35;;;;;;;14.80;9.10;;;;;;;11.58;75.47;100979.63;88275;1273;82092;-57
2022/05/08 02:15:44;;;;;;;15.60;10.50;;;;;;;11.57;75.35;100979.23;88260;1273;98777;-57
2022/05/08 02:17:57;;;;;;;16.80;9.90;;;;;;;11.56;75.49;100977.89;88265;1273;86315;-68
2022/05/08 02:20:09;;;;;;;13.00;9.90;;;;;;;11.57;75.47;100978.83;88274;1274;95797;-68
2022/05/08 02:22:18;;;;;;;13.60;10.40;;;;;;;11.59;75.53;100979.52;88258;1273;79407;-59
2022/05/08 02:24:26;;;;;;;12.60;9.20;;;;;;;11.57;75.34;100975.48;88269;1273;80046;-58
2022/05/08 02:26:38;;;;;;;14.50;9.80;;;;;;;11.60;75.39;100975.61;88271;1273;98501;-58
2022/05/08 02:28:50;;;;;;;12.80;9.60;;;;;;;11.58;75.51;100969.80;88286;1274;88041;-58
2022/05/08 02:31:02;;;;;;;9.80;8.80;;;;;;;11.54;75.40;100973.77;88274;1274;94450;-57
2022/05/08 02:33:14;;;;;;;11.00;9.20;;;;;;;11.55;75.43;100973.39;88266;1274;82385;-58
2022/05/08 02:35:25;;;;;;;12.40;10.00;;;;;;;11.59;75.53;100970.85;88268;1273;81185;-56
2022/05/08 02:37:33;;;;;;;14.80;9.30;;;;;;;11.59;75.56;100976.85;88261;1274;100269;-57
2022/05/08 02:39:43;;;;;;;13.80;9.90;;;;;;;11.61;75.33;100976.42;88277;1273;89284;-57
2022/05/08 02:41:55;;;;;;;12.80;10.20;;;;;;;11.58;75.58;100975.83;88258;1273;94709;-57
2022/05/08 02:44:05;;;;;;;16.20;9.60;;;;;;;11.58;75.57;100976.80;88286;1274;79520;-67
2022/05/08 02:46:14;;;;;;;13.30;10.90;;;;;;;11.63;75.57;100979.55;88326;1273;80423;-68
2022/05/08 02:48:26;;;;;;;14.00;9.20;;;;;;;11.71;75.54;100978.84;88285;1273;99939;-58
2022/05/08 02:50:36;;;;;;;14.10;10.10;;;;;;;11.73;75.54;100979.08;88185;1274;88438;-57
2022/05/08 02:52:45;;;;;;;12.00;9.80;;;;;;;11.68;75.56;100977.89;88266;1273;95146;-58
2022/05/08 02:54:54;;;;;;;12.50;9.90;;;;;;;11.70;75.56;100978.58;88262;1273;78478;-58
2022/05/08 02:59:33;;;;;;;12.10;9.60;;;;;;;11.68;75.56;100980.61;88270;1273;99598;-68
2022/05/08 03:01:45;;;;;;;15.10;10.40;;;;;;;11.64;75.56;100977.31;88290;1273;88479;-68
2022/05/08 03:03:54;;;;;;;12.10;9.40;;;;;;;11.64;75.56;100977.84;88261;1273;96010;-69
2022/05/08 03:06:08;;;;;;;12.80;9.30;;;;;;;11.61;75.69;100979.10;88277;1274;78620;-66
2022/05/08 03:08:19;;;;;;;;;;;;;;;11.60;75.61;100984.99;88305;1273;82805;-67
2022/05/08 03:11:25;;;;;;;12.30;8.80;;;;;;;11.59;75.75;100986.05;88253;1273;100255;-67
2022/05/08 03:12:58;;;;;;;12.20;9.80;;;;;;;11.63;75.62;100993.13;88268;1273;89678;-68
2022/05/08 03:15:10;;;;;;;12.50;10.30;;;;;;;11.65;75.76;100995.27;88207;1273;93914;-57
2022/05/08 03:17:20;;;;;;;13.30;10.10;;;;;;;11.65;75.69;100998.08;88196;1275;81667;-67
2022/05/08 03:19:29;;;;;;;12.00;10.20;;;;;;;11.70;75.78;100998.43;88204;1273;81680;-68
2022/05/08 03:21:38;;;;;;;10.40;9.30;;;;;;;11.75;75.71;100997.18;88221;1273;100288;-68
2022/05/08 03:23:48;;;;;;;13.80;11.10;;;;;;;11.74;75.79;100991.80;88203;1273;86731;-69
2022/05/08 03:25:57;;;;;;;12.10;9.80;;;;;;;11.72;75.82;100994.73;88180;1273;95911;-68
2022/05/08 03:28:07;;;;;;;13.70;11.10;;;;;;;11.72;75.84;100993.35;88197;1274;78530;-69
2022/05/08 03:30:17;;;;;;;13.70;10.90;;;;;;;11.72;75.80;100996.26;88218;1273;83152;-68
2022/05/08 03:32:29;;;;;;;15.00;10.40;;;;;;;11.72;75.78;100994.18;88212;1273;98549;-58
2022/05/08 03:34:38;;;;;;;12.90;10.20;;;;;;;11.72;75.76;100992.35;88184;1273;87764;-58
2022/05/08 03:36:50;;;;;;;13.50;9.90;;;;;;;11.73;75.74;100997.69;88145;1275;96018;-59
2022/05/08 03:38:59;;;;;;;13.20;10.80;;;;;;;11.75;75.68;100998.02;88189;1274;82854;-66
2022/05/08 03:41:15;;;;;;;12.80;9.80;;;;;;;11.80;75.57;101001.33;88176;1274;82759;-71
2022/05/08 03:43:24;;;;;;;13.80;10.30;;;;;;;11.84;75.62;101003.42;88227;1273;100404;-57
2022/05/08 03:45:33;;;;;;;13.80;10.70;;;;;;;11.90;75.62;101004.39;88190;1273;89065;-57
2022/05/08 03:47:42;;;;;;;14.00;11.10;;;;;;;11.95;75.51;101004.14;88172;1273;93274;-68
2022/05/08 03:49:53;;;;;;;14.10;10.80;;;;;;;11.99;75.44;101005.25;88153;1276;83838;-69
2022/05/08 03:52:04;;;;;;;14.70;11.60;;;;;;;12.04;75.39;101012.91;88219;1273;83338;-69
2022/05/08 03:54:13;;;;;;;16.70;12.70;;;;;;;12.09;75.08;101013.11;88249;1273;97944;-59
2022/05/08 03:56:22;;;;;;;15.50;13.20;;;;;;;12.14;74.97;101014.83;88185;1273;87394;-58
2022/05/08 03:58:32;;;;;;;17.00;13.90;;;;;;;12.17;74.84;101021.28;88209;1273;95531;-58
2022/05/08 04:00:41;;;;;;;17.70;13.30;;;;;;;12.20;74.71;101028.13;88170;1274;78527;-59
2022/05/08 04:02:51;;;;;;;18.00;14.10;;;;;;;12.21;74.69;101030.93;88230;1273;81428;-67
2022/05/08 04:05:00;;;;;;;17.50;14.60;;;;;;;12.21;74.50;101031.58;88221;1273;96562;-68
2022/05/08 04:07:09;;;;;;;15.50;12.50;;;;;;;12.23;74.53;101031.95;88183;1273;89529;-68
2022/05/08 04:09:19;;;;;;;15.90;13.20;;;;;;;12.25;74.69;101032.74;88171;1273;95236;-68
2022/05/08 04:11:29;;;;;;;18.20;13.70;;;;;;;12.26;74.56;101035.89;88191;1273;79888;-68
2022/05/08 04:13:38;;;;;;;16.70;12.70;;;;;;;12.25;74.46;101037.51;88225;1273;82999;-58
2022/05/08 04:18:16;;;;;;;15.60;12.30;;;;;;;12.30;74.54;101038.63;88200;1273;87869;-68
2022/05/08 04:20:26;;;;;;;15.30;12.10;;;;;;;12.36;74.50;101041.11;88193;1273;94548;-69
2022/05/08 04:25:02;;;;;;;19.30;14.00;;;;;;;12.47;74.31;101046.18;88210;1273;81105;-57
2022/05/08 04:27:11;;;;;;;16.30;13.30;;;;;;;12.51;74.10;101037.15;88203;1273;100215;-59
2022/05/08 04:29:20;;;;;;;19.50;14.30;;;;;;;12.55;74.15;101049.71;88225;1273;88805;-58
2022/05/08 04:31:31;;;;;;;17.10;13.70;;;;;;;12.57;74.00;101054.71;88181;1273;94846;-58
2022/05/08 04:33:44;;;;;;;19.10;13.20;;;;;;;12.55;73.95;101054.33;88219;1273;79546;-68
2022/05/08 04:35:53;;;;;;;16.60;12.70;;;;;;;12.57;73.82;101049.16;88231;1273;80992;-69
2022/05/08 04:38:02;;;;;;;17.10;13.50;;;;;;;12.56;73.61;101052.15;88191;1273;99998;-68
2022/05/08 04:40:15;;;;;;;20.30;13.90;;;;;;;12.59;73.63;101053.50;88218;1273;87180;-68
2022/05/08 04:42:23;;;;;;;18.40;13.70;;;;;;;12.63;73.65;101051.55;88213;1273;95619;-69
2022/05/08 04:44:35;;;;;;;17.80;13.10;;;;;;;12.65;73.61;101050.95;88198;1273;80144;-69
2022/05/08 04:46:47;;;;;;;17.60;13.00;;;;;;;12.68;73.50;101050.27;88233;1273;80903;-70
2022/05/08 04:48:56;;;;;;;16.20;12.70;;;;;;;12.72;73.44;101051.96;88157;1274;99985;-68
2022/05/08 04:51:05;;;;;;;18.90;13.60;;;;;;;12.78;73.45;101052.92;88211;1273;89399;-67
2022/05/08 04:53:14;;;;;;;17.90;13.30;;;;;;;12.85;73.23;101055.23;88159;1274;95359;-59
2022/05/08 04:55:25;;;;;;;21.50;13.90;;;;;;;12.93;73.19;101056.95;88213;1273;77931;-58
2022/05/08 04:57:38;;;;;;;17.80;13.40;;;;;;;13.00;73.12;101059.94;88176;1274;83029;-57
2022/05/08 04:59:47;;;;;;;16.00;13.60;;;;;;;13.07;73.02;101057.95;88190;1273;98743;-58
2022/05/08 05:01:57;;;;;;;16.10;13.40;;;;;;;13.13;72.92;101055.89;88183;1275;87708;-58
2022/05/08 05:04:09;;;;;;;17.00;13.80;;;;;;;13.26;72.93;101058.75;88232;1273;94433;-72
2022/05/08 05:06:18;;;;;;;16.80;13.10;;;;;;;13.41;72.81;101055.38;88212;1273;79665;-70
2022/05/08 05:08:27;;;;;;;19.20;13.30;;;;;;;13.55;72.82;101060.42;88208;1273;83228;-60
2022/05/08 05:10:35;;;;;;;18.30;13.70;;;;;;;13.69;72.56;101068.70;88193;1273;100250;-59
2022/05/08 05:12:48;;;;;;;16.70;14.60;;;;;;;13.88;72.34;101060.59;88198;1273;87612;-68
2022/05/08 05:14:56;;;;;;;15.10;13.20;;;;;;;14.09;72.24;101061.07;88190;1273;95686;-69
2022/05/08 05:17:08;;;;;;;18.00;12.70;;;;;;;14.27;71.94;101066.86;88210;1274;78828;-69
2022/05/08 05:19:17;;;;;;;14.00;12.50;;;;;;;14.36;71.87;101068.90;88271;1273;82195;-68
2022/05/08 05:21:26;;;;;;;17.20;12.20;;;;;;;14.42;71.59;101069.10;88219;1273;99382;-69
2022/05/08 05:23:37;;;;;;;17.90;14.00;;;;;;;14.45;71.34;101070.17;88240;1273;88456;-69
2022/05/08 05:25:51;;;;;;;14.80;12.60;;;;;;;14.52;71.07;101073.35;88209;1273;95198;-68
2022/05/08 05:28:01;;;;;;;16.70;13.00;;;;;;;14.58;71.03;101079.31;88255;1273;77670;-69
2022/05/08 05:30:14;;;;;;;16.70;13.80;;;;;;;14.69;70.83;101082.42;88221;1273;82883;-69
2022/05/08 05:32:26;;;;;;;16.00;12.40;;;;;;;14.76;70.77;101083.81;88163;1274;99315;-67
2022/05/08 05:34:38;;;;;;;16.50;13.90;;;;;;;14.90;70.83;101087.48;88194;1273;88821;-67
2022/05/08 05:36:51;;;;;;;15.70;12.70;;;;;;;14.96;70.61;101088.75;88218;1273;95748;-69
2022/05/08 05:39:04;;;;;;;15.60;13.00;;;;;;;15.06;70.55;101086.83;88235;1273;79039;-58
2022/05/08 05:41:13;;;;;;;15.50;13.00;;;;;;;15.17;70.48;101091.79;88243;1273;82441;-60
2022/05/08 05:43:21;;;;;;;14.70;13.00;;;;;;;15.47;70.60;101094.31;88231;1273;99745;-69
2022/05/08 05:45:30;;;;;;;14.90;12.60;;;;;;;15.89;70.23;101093.02;88216;1274;89276;-68
2022/05/08 05:47:52;;;;;;;14.90;12.20;;;;;;;16.25;69.93;101093.55;88242;1273;95825;-59
2022/05/08 05:50:01;;;;;;;12.80;11.30;;;;;;;16.74;69.51;101098.29;88203;1274;79687;-58
2022/05/08 05:52:14;;;;;;;13.50;10.70;;;;;;;17.06;68.83;101104.17;88231;1273;82779;-58
2022/05/08 05:54:24;;;;;;;12.20;10.20;;;;;;;17.27;68.36;101101.60;88251;1273;98329;-67
2022/05/08 05:56:35;;;;;;;11.80;9.90;;;;;;;17.50;67.96;101100.41;88223;1273;88499;-68
2022/05/08 05:58:47;;;;;;;13.90;10.60;;;;;;;17.76;67.48;101106.55;88230;1273;93564;-68
2022/05/08 06:01:02;;;;;;;13.60;10.70;;;;;;;18.62;67.38;101099.45;88212;1273;80299;-68
2022/05/08 06:03:14;;;;;;;12.60;10.00;;;;;;;20.14;67.64;101097.80;88229;1273;82739;-68
2022/05/08 06:05:23;;;;;;;10.50;8.90;;;;;;;22.09;65.74;101101.72;88220;1273;99433;-67
2022/05/08 06:07:36;;;;;;;10.30;8.20;;;;;;;23.65;63.83;101099.65;88237;1273;87619;-59
2022/05/08 06:09:47;;;;;;;9.50;7.50;;;;;;;24.97;61.45;101098.95;88154;1274;94727;-60
2022/05/08 06:11:56;;;;;;;8.70;7.80;;;;;;;26.09;59.75;101097.77;88221;1273;80118;-58
2022/05/08 06:14:08;;;;;;;7.50;6.40;;;;;;;27.06;57.95;101093.61;88200;1273;82867;-58
2022/05/08 06:16:17;;;;;;;5.50;5.00;;;;;;;27.94;54.44;101089.98;88215;1273;99607;-59
2022/05/08 06:18:29;;;;;;;6.70;5.40;;;;;;;27.88;52.49;101091.23;88225;1274;89259;-59
2022/05/08 06:20:38;;;;;;;7.00;5.20;;;;;;;27.05;51.12;101090.34;88228;1273;94505;-59
2022/05/08 06:22:48;;;;;;;6.50;5.60;;;;;;;26.42;49.95;101092.00;88239;1273;78188;-59
2022/05/08 06:24:57;;;;;;;7.20;5.30;;;;;;;26.37;50.50;101093.61;88251;1273;82688;-60
2022/05/08 06:27:11;;;;;;;7.00;5.40;;;;;;;26.34;49.49;101092.28;88238;1274;97994;-60
2022/05/08 06:29:21;;;;;;;7.00;5.10;;;;;;;25.57;48.94;101093.46;88191;1273;87557;-59
2022/05/08 06:31:30;;;;;;;6.90;4.70;;;;;;;24.88;49.04;101090.55;88202;1274;95977;-60
2022/05/08 06:33:40;;;;;;;8.00;5.80;;;;;;;25.11;49.29;101091.92;88241;1273;78728;-63
2022/05/08 06:35:54;;;;;;;6.30;5.60;;;;;;;25.83;48.03;101096.84;88202;1274;80593;-63
2022/05/08 06:38:04;;;;;;;;;;;;;;;25.04;46.96;101098.90;88216;1275;99344;-60
2022/05/08 06:40:15;;;;;;;6.00;4.60;;;;;;;24.04;47.24;101095.58;88212;1273;89676;-59
2022/05/08 06:42:28;;;;;;;7.50;4.90;;;;;;;23.06;47.79;101100.82;88203;1274;93757;-65
2022/05/08 06:44:38;;;;;;;5.90;5.30;;;;;;;22.36;48.38;101106.91;88226;1273;78433;-63
2022/05/08 06:46:47;;;;;;;7.00;4.90;;;;;;;21.79;49.11;101109.64;88221;1274;80792;-65
2022/05/08 06:48:57;;;;;;;8.50;5.60;;;;;;;21.21;49.62;101110.19;88234;1274;97388;-67
2022/05/08 06:51:06;;;;;;;6.10;5.50;;;;;;;20.72;50.25;101111.95;88227;1274;89467;-64
2022/05/08 06:53:16;;;;;;;7.20;5.90;;;;;;;20.21;50.88;101115.67;88226;1274;93359;-60
2022/05/08 06:55:31;;;;;;;7.90;5.70;;;;;;;19.94;51.35;101116.80;88216;1274;78073;-61
2022/05/08 06:57:43;;;;;;;6.60;5.90;;;;;;;19.74;51.97;101122.92;88206;1274;81897;-59
2022/05/08 07:02:19;;;;;;;8.40;6.40;;;;;;;19.62;53.12;101117.16;88094;1277;88613;-63
2022/05/08 07:04:31;;;;;;;7.60;6.50;;;;;;;19.90;53.36;101116.09;88214;1274;94198;-63
2022/05/08 07:06:42;;;;;;;7.90;7.10;;;;;;;20.34;53.83;101111.76;88156;1274;79505;-62
2022/05/08 07:08:53;;;;;;;7.50;6.70;;;;;;;21.54;53.56;101114.64;88212;1274;82307;-62
2022/05/08 07:11:05;;;;;;;8.10;6.50;;;;;;;21.79;52.20;101116.02;88230;1274;99593;-61
2022/05/08 07:13:15;;;;;;;7.40;6.70;;;;;;;21.60;51.62;101120.98;88142;1276;88990;-61
2022/05/08 07:15:27;;;;;;;8.20;6.40;;;;;;;21.30;51.44;101122.71;88198;1274;95351;-60
2022/05/08 07:17:39;;;;;;;7.00;6.30;;;;;;;20.90;51.78;101121.39;88075;1278;79435;-67
2022/05/08 07:19:49;;;;;;;7.00;6.30;;;;;;;20.44;52.11;101123.52;88243;1274;81720;-66
2022/05/08 07:21:58;;;;;;;8.70;6.90;;;;;;;20.09;52.25;101119.77;88174;1274;99818;-65
2022/05/08 07:24:09;;;;;;;9.40;6.50;;;;;;;19.84;52.81;101117.77;88173;1274;89514;-59
2022/05/08 07:26:19;;;;;;;6.70;6.10;;;;;;;19.65;53.06;101124.54;88173;1274;92679;-58
2022/05/08 07:28:30;;;;;;;9.80;6.80;;;;;;;19.40;53.43;101123.25;88198;1274;81509;-58
2022/05/08 07:30:40;;;;;;;7.40;6.60;;;;;;;19.26;53.87;101124.83;88227;1274;82644;-58
2022/05/08 07:32:50;;;;;;;7.90;7.10;;;;;;;19.20;54.47;101122.31;88187;1274;98765;-58
2022/05/08 07:37:28;;;;;;;8.60;6.90;;;;;;;19.30;54.76;101121.08;88185;1274;93450;-66
2022/05/08 07:39:37;;;;;;;7.30;6.30;;;;;;;19.22;54.76;101120.23;88226;1274;79177;-64
2022/05/08 07:41:46;;;;;;;8.50;6.90;;;;;;;19.10;54.97;101120.99;88231;1274;80699;-63
2022/05/08 07:43:56;;;;;;;9.80;6.60;;;;;;;19.17;55.22;101121.94;88183;1274;100473;-57
2022/05/08 07:46:09;;;;;;;9.00;6.60;;;;;;;19.14;55.27;101123.83;88157;1275;88169;-67
2022/05/08 07:48:18;;;;;;;7.10;6.00;;;;;;;19.18;54.94;101124.66;88153;1274;95624;-57
2022/05/08 07:50:27;;;;;;;7.70;6.10;;;;;;;19.08;55.20;101127.69;88213;1274;78468;-58
2022/05/08 07:52:40;;;;;;;10.00;5.70;;;;;;;18.90;55.18;101127.12;88217;1274;83081;-57
2022/05/08 07:54:52;;;;;;;7.60;5.40;;;;;;;18.89;54.91;101129.05;88187;1274;98714;-57
2022/05/08 07:57:04;;;;;;;7.80;5.70;;;;;;;18.88;54.97;101131.00;88210;1274;89829;-57
2022/05/08 07:59:15;;;;;;;7.40;5.60;;;;;;;18.87;55.02;101131.14;88170;1274;92992;-58
2022/05/08 08:01:24;;;;;;;5.90;5.00;;;;;;;18.91;55.03;101131.32;88194;1274;81157;-57
2022/05/08 08:03:35;;;;;;;6.20;4.70;;;;;;;18.95;55.12;101131.27;87925;1274;397569;-58
2022/05/08 08:05:47;;;;;;;6.20;5.20;;;;;;;18.97;54.95;101134.29;88197;1274;99940;-58
2022/05/08 08:07:56;;;;;;;7.70;5.20;;;;;;;18.78;54.97;101136.11;88193;1274;89075;-66
2022/05/08 08:10:06;;;;;;;7.10;5.10;;;;;;;18.77;55.20;101139.25;88148;1274;95105;-66
2022/05/08 08:12:15;;;;;;;6.50;5.10;;;;;;;18.76;55.58;101138.29;88242;1273;78585;-58
2022/05/08 08:14:29;;;;;;;6.50;5.50;;;;;;;18.76;55.60;101139.16;88199;1272;82023;-59
2022/05/08 08:16:41;;;;;;;8.30;6.50;;;;;;;18.82;55.77;101141.01;88223;1274;98367;-58
2022/05/08 08:18:50;;;;;;;7.80;5.00;;;;;;;18.90;55.97;101140.00;88158;1274;88500;-66
2022/05/08 08:21:00;;;;;;;8.00;5.10;;;;;;;19.03;55.90;101137.72;88159;1274;93850;-66
2022/05/08 08:23:13;;;;;;;5.80;5.10;;;;;;;19.13;55.64;101132.23;88194;1274;78976;-67
2022/05/08 08:25:23;;;;;;;6.50;4.70;;;;;;;19.38;55.39;101132.36;88224;1274;82891;-66
2022/05/08 08:27:32;;;;;;;6.00;4.50;;;;;;;19.88;55.39;101132.49;88222;1274;99110;-59
2022/05/08 08:29:42;;;;;;;5.50;4.50;;;;;;;20.64;55.27;101131.48;88228;1274;89151;-58
2022/05/08 08:31:51;;;;;;;4.80;4.10;;;;;;;21.47;54.81;101136.02;88225;1274;92494;-59
2022/05/08 08:34:01;;;;;;;5.40;4.10;;;;;;;22.34;53.44;101137.49;88239;1274;79706;-58
2022/05/08 08:36:11;;;;;;;5.10;3.60;;;;;;;23.52;52.76;101134.35;88257;1274;80398;-59
2022/05/08 08:38:24;;;;;;;6.10;3.70;;;;;;;25.00;51.09;101133.16;88213;1274;100274;-59
2022/05/08 08:40:35;;;;;;;3.90;3.50;;;;;;;26.22;48.80;101134.04;88235;1274;88234;-59
2022/05/08 08:42:45;;;;;;;4.40;3.20;;;;;;;26.26;46.94;101135.15;88216;1274;94820;-66
2022/05/08 08:47:44;;;;;;;5.00;3.60;;;;;;;25.10;45.56;101134.01;88241;1274;81975;-59
2022/05/08 08:49:55;;;;;;;4.20;3.60;;;;;;;24.75;45.58;101138.23;88180;1274;100404;-58
2022/05/08 08:52:06;;;;;;;4.30;3.10;;;;;;;24.40;45.29;101133.50;88198;1274;87675;-57
2022/05/08 08:54:20;;;;;;;4.20;3.20;;;;;;;24.22;45.28;101140.62;88209;1274;92678;-66
2022/05/08 08:56:29;;;;;;;4.60;3.10;;;;;;;23.94;45.51;101143.00;88218;1273;78661;-67
2022/05/08 08:58:40;;;;;;;5.10;3.50;;;;;;;24.45;45.99;101134.76;88262;1274;81818;-59
2022/05/08 09:00:54;;;;;;;4.40;3.60;;;;;;;24.60;45.29;101135.00;88231;1274;99692;-58
2022/05/08 09:03:02;;;;;;;5.70;3.40;;;;;;;24.85;44.69;101133.39;88197;1274;89732;-60
2022/05/08 09:05:15;;;;;;;4.30;3.50;;;;;;;24.88;44.58;101133.98;88192;1274;95873;-59
2022/05/08 09:07:45;;;;;;;4.70;3.50;;;;;;;24.77;44.47;101135.55;88203;1274;78445;-58
2022/05/08 09:10:09;;;;;;;4.90;3.50;;;;;;;25.13;44.79;101130.76;88216;1274;82644;-59
2022/05/08 09:12:22;;;;;;;4.30;3.30;;;;;;;25.80;43.61;101137.36;88212;1274;97868;-58
2022/05/08 09:14:36;;;;;;;5.30;3.50;;;;;;;25.89;43.04;101133.29;88200;1274;86858;-58
2022/05/08 09:16:58;;;;;;;4.60;3.50;;;;;;;25.78;42.62;101136.19;88204;1274;95644;-59
2022/05/08 09:19:07;;;;;;;5.50;3.40;;;;;;;25.43;42.83;101133.85;88205;1274;79690;-59
2022/05/08 09:24:13;;;;;;;4.90;3.50;;;;;;;25.12;43.12;101131.81;88173;1274;99366;-67
2022/05/08 09:26:28;;;;;;;3.30;2.80;;;;;;;24.97;42.93;101132.15;88172;1274;89575;-67
2022/05/08 09:28:43;;;;;;;3.70;2.50;;;;;;;24.76;42.85;101132.42;88169;1274;95775;-68
2022/05/08 09:31:05;;;;;;;4.00;2.70;;;;;;;24.56;42.90;101133.09;88212;1274;80237;-67
2022/05/08 09:33:28;;;;;;;3.10;2.50;;;;;;;24.57;42.88;101134.76;88275;1273;82043;-66
2022/05/08 09:35:48;;;;;;;3.60;2.80;;;;;;;24.51;43.06;101135.10;88234;1274;100618;-67
2022/05/08 09:38:00;;;;;;;3.50;2.60;;;;;;;24.42;43.23;101134.90;88208;1273;88773;-59
2022/05/08 09:40:23;;;;;;;3.30;2.40;;;;;;;24.37;43.18;101135.91;88216;1273;94765;-58
2022/05/08 09:42:42;;;;;;;3.20;2.60;;;;;;;24.48;43.11;101134.68;88200;1274;78488;-59
2022/05/08 09:47:44;;;;;;;4.20;2.80;;;;;;;24.63;42.77;101143.54;85362;1313;600278;-58
2022/05/08 09:49:53;;;;;;;4.10;2.50;;;;;;;24.45;42.81;101140.34;87887;1284;80848;-59
2022/05/08 09:52:03;;;;;;;4.30;2.10;;;;;;;24.34;42.77;101145.55;87861;1284;82853;-59
2022/05/08 09:54:14;;;;;;;3.20;2.30;;;;;;;24.20;42.53;101143.86;87677;1284;97642;-58
2022/05/08 09:56:23;;;;;;;6.10;2.60;;;;;;;24.10;42.63;101144.36;87809;1284;88558;-57
2022/05/08 09:58:36;;;;;;;2.40;1.90;;;;;;;24.09;42.64;101146.05;87784;1284;95367;-59
2022/05/08 10:00:48;;;;;;;3.70;1.90;;;;;;;23.83;42.23;101146.30;87983;1274;296640;-58
2022/05/08 10:02:57;;;;;;;4.50;1.90;;;;;;;23.57;42.34;101148.91;88224;1272;82361;-58
2022/05/08 10:05:08;;;;;;;3.50;2.00;;;;;;;23.40;42.32;101148.56;88169;1274;97540;-58
2022/05/08 10:07:21;;;;;;;3.20;2.70;;;;;;;23.32;42.07;101149.16;88297;1274;87200;-64
2022/05/08 10:14:30;;;;;;;3.20;1.90;;;;;;;22.98;42.04;101154.12;88269;1274;80573;-66
2022/05/08 10:17:02;;;;;;;2.80;1.90;;;;;;;22.81;42.03;101156.98;88258;1273;97438;-69
2022/05/08 10:19:48;;;;;;;4.20;2.30;;;;;;;22.72;42.25;101155.18;88258;1274;88025;-67
2022/05/08 10:22:13;;;;;;;3.40;2.50;;;;;;;22.56;42.12;101154.61;88262;1274;95232;-66
2022/05/08 10:24:36;;;;;;;4.00;2.20;;;;;;;22.37;42.05;101155.00;88249;1274;79895;-61
2022/05/08 10:27:14;;;;;;;4.20;2.30;;;;;;;22.27;42.23;101155.05;88254;1274;82952;-60
2022/05/08 10:29:23;;;;;;;5.10;2.40;;;;;;;22.11;42.76;101158.38;88231;1274;98341;-59
2022/05/08 10:31:52;;;;;;;4.10;2.50;;;;;;;22.06;42.76;101157.01;88192;1274;87654;-60